Roland, Iowa
Current Conditions -  °F | °C
As of 2:53 PM on Wednesday 26 Nov 2014 (Local Time) from KAMW Reporting Station
Light Snow Light Snow  
Wind Chill: 19°   Ceiling: 800
Heat Index: 30°   Visibility: 1.2mi
Dew Point: 26°   Wind: 15mph
Humidity: 85%   Direction: 10°N
Pressure: 30.08"   Gusts: NA
Location:  42.17°N, 93.5°W
Report Text: KAMW 262053Z AUTO 01013KT 1 1/4SM -SN BR BKN008 OVC017 M01/M03 A3008 RMK AO2 CIG 007V011 SLP196 P0001 60002 T10111033 53030
Loading
Personal Weather Stations






























Interactive Weather Map New forecast layout! Learn more

10-Day Weather Forecast

Advertisements
Track Severe Weather on mobile